Saint Martin Island, Guadeloupe
Current Conditions -  °F | °C
As of 5:00 PM on Friday 24 Oct 2014 (Local Time) from TNCM Reporting Station
Few Clouds Few Clouds  
Wind Chill: 86°   Ceiling: Unl
Heat Index: 95°   Visibility: 6mi
Dew Point: 75°   Wind: 9mph
Humidity: 70%   Direction: 90°E
Pressure: 29.88"   Gusts: NA
Location:  18.09°N, 63.05°W
Report Text: TNCM 242100Z 09008KT 9999 FEW020 30/24 Q1012 A2989 NOSIG
Loading
Personal Weather Stations






























Interactive Weather Map
Tropical Storm Tracking
New forecast layout! Learn more

10-Day Weather Forecast

Advertisements
Track Severe Weather on mobile